sensor_id;sensor_type;location;lat;lon;timestamp;P1;durP1;ratioP1;P2;durP2;ratioP2
52368;SDS011;38298;50.346;3.526;2023-10-31T00:00:49;5.80;;;3.35;;
52368;SDS011;38298;50.346;3.526;2023-10-31T00:03:15;5.40;;;3.60;;
52368;SDS011;38298;50.346;3.526;2023-10-31T00:05:41;4.00;;;2.97;;
52368;SDS011;38298;50.346;3.526;2023-10-31T00:08:08;4.32;;;3.13;;
52368;SDS011;38298;50.346;3.526;2023-10-31T00:10:34;6.63;;;2.78;;
52368;SDS011;38298;50.346;3.526;2023-10-31T00:13:00;2.65;;;2.42;;
52368;SDS011;38298;50.346;3.526;2023-10-31T00:15:26;4.88;;;3.10;;
52368;SDS011;38298;50.346;3.526;2023-10-31T00:17:54;5.18;;;3.03;;
52368;SDS011;38298;50.346;3.526;2023-10-31T00:20:20;6.30;;;3.20;;
52368;SDS011;38298;50.346;3.526;2023-10-31T00:22:46;5.45;;;2.95;;
52368;SDS011;38298;50.346;3.526;2023-10-31T00:25:12;4.97;;;3.10;;
52368;SDS011;38298;50.346;3.526;2023-10-31T00:27:38;4.28;;;2.92;;
52368;SDS011;38298;50.346;3.526;2023-10-31T00:30:04;2.65;;;2.40;;
52368;SDS011;38298;50.346;3.526;2023-10-31T00:32:30;6.10;;;2.88;;
52368;SDS011;38298;50.346;3.526;2023-10-31T00:34:56;5.13;;;2.35;;
52368;SDS011;38298;50.346;3.526;2023-10-31T00:37:22;2.92;;;2.33;;
52368;SDS011;38298;50.346;3.526;2023-10-31T00:39:48;3.25;;;2.40;;
52368;SDS011;38298;50.346;3.526;2023-10-31T00:42:14;6.85;;;2.58;;
52368;SDS011;38298;50.346;3.526;2023-10-31T00:44:40;2.38;;;2.17;;
52368;SDS011;38298;50.346;3.526;2023-10-31T00:47:06;2.50;;;2.28;;
52368;SDS011;38298;50.346;3.526;2023-10-31T00:49:32;4.97;;;2.40;;
52368;SDS011;38298;50.346;3.526;2023-10-31T00:51:58;3.38;;;2.55;;
52368;SDS011;38298;50.346;3.526;2023-10-31T00:54:24;3.70;;;2.58;;
52368;SDS011;38298;50.346;3.526;2023-10-31T00:56:50;2.50;;;2.10;;
52368;SDS011;38298;50.346;3.526;2023-10-31T00:59:16;2.85;;;2.40;;
52368;SDS011;38298;50.346;3.526;2023-10-31T01:01:42;5.53;;;2.50;;
52368;SDS011;38298;50.346;3.526;2023-10-31T01:04:08;2.90;;;2.08;;
52368;SDS011;38298;50.346;3.526;2023-10-31T01:06:39;4.30;;;2.45;;
52368;SDS011;38298;50.346;3.526;2023-10-31T01:09:06;3.03;;;2.40;;
52368;SDS011;38298;50.346;3.526;2023-10-31T01:11:32;2.70;;;2.50;;
52368;SDS011;38298;50.346;3.526;2023-10-31T01:13:58;4.35;;;2.30;;
52368;SDS011;38298;50.346;3.526;2023-10-31T01:16:23;4.18;;;2.30;;
52368;SDS011;38298;50.346;3.526;2023-10-31T01:18:49;3.90;;;2.80;;
52368;SDS011;38298;50.346;3.526;2023-10-31T01:21:16;4.80;;;2.97;;
52368;SDS011;38298;50.346;3.526;2023-10-31T01:23:42;2.97;;;2.55;;
52368;SDS011;38298;50.346;3.526;2023-10-31T01:26:08;6.78;;;2.90;;
52368;SDS011;38298;50.346;3.526;2023-10-31T01:28:34;4.30;;;2.80;;
52368;SDS011;38298;50.346;3.526;2023-10-31T01:31:00;5.35;;;2.70;;
52368;SDS011;38298;50.346;3.526;2023-10-31T01:33:26;2.50;;;2.20;;
52368;SDS011;38298;50.346;3.526;2023-10-31T01:35:52;3.42;;;2.40;;
52368;SDS011;38298;50.346;3.526;2023-10-31T01:38:18;5.22;;;3.25;;
52368;SDS011;38298;50.346;3.526;2023-10-31T01:40:44;4.50;;;3.35;;
52368;SDS011;38298;50.346;3.526;2023-10-31T01:43:28;5.28;;;3.42;;
52368;SDS011;38298;50.346;3.526;2023-10-31T01:45:54;3.78;;;3.25;;
52368;SDS011;38298;50.346;3.526;2023-10-31T01:48:20;4.45;;;3.72;;
52368;SDS011;38298;50.346;3.526;2023-10-31T01:50:46;3.92;;;2.80;;
52368;SDS011;38298;50.346;3.526;2023-10-31T01:53:12;5.45;;;3.55;;
52368;SDS011;38298;50.346;3.526;2023-10-31T01:55:38;6.75;;;3.50;;
52368;SDS011;38298;50.346;3.526;2023-10-31T01:58:04;4.15;;;3.35;;
52368;SDS011;38298;50.346;3.526;2023-10-31T02:00:30;5.43;;;4.07;;
52368;SDS011;38298;50.346;3.526;2023-10-31T02:02:56;5.38;;;3.72;;
52368;SDS011;38298;50.346;3.526;2023-10-31T02:05:23;5.50;;;3.50;;
52368;SDS011;38298;50.346;3.526;2023-10-31T02:07:49;5.60;;;4.20;;
52368;SDS011;38298;50.346;3.526;2023-10-31T02:10:15;4.47;;;3.55;;
52368;SDS011;38298;50.346;3.526;2023-10-31T02:12:41;4.70;;;3.67;;
52368;SDS011;38298;50.346;3.526;2023-10-31T02:15:07;4.47;;;3.38;;
52368;SDS011;38298;50.346;3.526;2023-10-31T02:17:34;6.45;;;3.90;;
52368;SDS011;38298;50.346;3.526;2023-10-31T02:20:00;7.07;;;3.55;;
52368;SDS011;38298;50.346;3.526;2023-10-31T02:22:26;6.13;;;4.00;;
52368;SDS011;38298;50.346;3.526;2023-10-31T02:24:52;5.63;;;3.78;;
52368;SDS011;38298;50.346;3.526;2023-10-31T02:27:18;7.25;;;4.05;;
52368;SDS011;38298;50.346;3.526;2023-10-31T02:29:44;4.38;;;3.97;;
52368;SDS011;38298;50.346;3.526;2023-10-31T02:32:10;6.32;;;4.30;;
52368;SDS011;38298;50.346;3.526;2023-10-31T02:34:36;5.88;;;4.07;;
52368;SDS011;38298;50.346;3.526;2023-10-31T02:37:02;7.22;;;4.35;;
52368;SDS011;38298;50.346;3.526;2023-10-31T02:39:28;8.90;;;4.30;;
52368;SDS011;38298;50.346;3.526;2023-10-31T02:41:54;6.90;;;4.20;;
52368;SDS011;38298;50.346;3.526;2023-10-31T02:44:20;5.38;;;3.92;;
52368;SDS011;38298;50.346;3.526;2023-10-31T02:46:46;5.97;;;4.43;;
52368;SDS011;38298;50.346;3.526;2023-10-31T02:49:12;6.53;;;4.40;;
52368;SDS011;38298;50.346;3.526;2023-10-31T02:51:38;7.63;;;4.57;;
52368;SDS011;38298;50.346;3.526;2023-10-31T02:54:04;6.63;;;4.45;;
52368;SDS011;38298;50.346;3.526;2023-10-31T02:56:31;8.95;;;4.68;;
52368;SDS011;38298;50.346;3.526;2023-10-31T02:58:57;7.22;;;5.10;;
52368;SDS011;38298;50.346;3.526;2023-10-31T03:01:23;7.03;;;4.63;;
52368;SDS011;38298;50.346;3.526;2023-10-31T03:03:49;6.07;;;4.32;;
52368;SDS011;38298;50.346;3.526;2023-10-31T03:06:15;6.60;;;4.07;;
52368;SDS011;38298;50.346;3.526;2023-10-31T03:08:41;6.95;;;4.10;;
52368;SDS011;38298;50.346;3.526;2023-10-31T03:11:07;6.32;;;4.40;;
52368;SDS011;38298;50.346;3.526;2023-10-31T03:13:33;5.50;;;4.47;;
52368;SDS011;38298;50.346;3.526;2023-10-31T03:15:59;5.78;;;4.57;;
52368;SDS011;38298;50.346;3.526;2023-10-31T03:18:25;5.57;;;3.97;;
52368;SDS011;38298;50.346;3.526;2023-10-31T03:20:50;4.97;;;3.72;;
52368;SDS011;38298;50.346;3.526;2023-10-31T03:23:16;7.05;;;3.70;;
52368;SDS011;38298;50.346;3.526;2023-10-31T03:25:42;7.35;;;4.10;;
52368;SDS011;38298;50.346;3.526;2023-10-31T03:28:19;6.60;;;4.60;;
52368;SDS011;38298;50.346;3.526;2023-10-31T03:30:48;6.28;;;4.05;;
52368;SDS011;38298;50.346;3.526;2023-10-31T03:33:14;4.70;;;3.80;;
52368;SDS011;38298;50.346;3.526;2023-10-31T03:35:44;4.97;;;3.50;;
52368;SDS011;38298;50.346;3.526;2023-10-31T03:38:10;8.80;;;3.67;;
52368;SDS011;38298;50.346;3.526;2023-10-31T03:40:36;5.93;;;3.45;;
52368;SDS011;38298;50.346;3.526;2023-10-31T03:43:02;8.27;;;3.35;;
52368;SDS011;38298;50.346;3.526;2023-10-31T03:45:28;7.55;;;3.17;;
52368;SDS011;38298;50.346;3.526;2023-10-31T03:47:54;5.60;;;3.28;;
52368;SDS011;38298;50.346;3.526;2023-10-31T03:50:20;7.05;;;3.30;;
52368;SDS011;38298;50.346;3.526;2023-10-31T03:52:46;5.22;;;3.05;;
52368;SDS011;38298;50.346;3.526;2023-10-31T03:55:12;5.57;;;3.28;;
52368;SDS011;38298;50.346;3.526;2023-10-31T03:57:38;6.22;;;3.20;;
52368;SDS011;38298;50.346;3.526;2023-10-31T04:00:05;4.05;;;3.17;;
52368;SDS011;38298;50.346;3.526;2023-10-31T04:02:32;4.53;;;3.42;;
52368;SDS011;38298;50.346;3.526;2023-10-31T04:04:58;7.40;;;3.33;;
52368;SDS011;38298;50.346;3.526;2023-10-31T04:07:24;4.57;;;3.10;;
52368;SDS011;38298;50.346;3.526;2023-10-31T04:09:50;5.75;;;3.47;;
52368;SDS011;38298;50.346;3.526;2023-10-31T04:12:16;4.20;;;3.80;;
52368;SDS011;38298;50.346;3.526;2023-10-31T04:14:42;7.25;;;3.35;;
52368;SDS011;38298;50.346;3.526;2023-10-31T04:17:08;8.85;;;3.70;;
52368;SDS011;38298;50.346;3.526;2023-10-31T04:19:36;5.78;;;3.88;;
52368;SDS011;38298;50.346;3.526;2023-10-31T04:22:02;5.07;;;3.90;;
52368;SDS011;38298;50.346;3.526;2023-10-31T04:24:28;10.85;;;5.38;;
52368;SDS011;38298;50.346;3.526;2023-10-31T04:26:54;9.02;;;5.03;;
52368;SDS011;38298;50.346;3.526;2023-10-31T04:29:20;5.18;;;4.35;;
52368;SDS011;38298;50.346;3.526;2023-10-31T04:31:46;7.47;;;4.35;;
52368;SDS011;38298;50.346;3.526;2023-10-31T04:34:12;7.60;;;4.70;;
52368;SDS011;38298;50.346;3.526;2023-10-31T04:36:38;9.60;;;5.20;;
52368;SDS011;38298;50.346;3.526;2023-10-31T04:39:04;6.95;;;4.03;;
52368;SDS011;38298;50.346;3.526;2023-10-31T04:41:30;8.75;;;5.43;;
52368;SDS011;38298;50.346;3.526;2023-10-31T04:43:57;5.53;;;4.47;;
52368;SDS011;38298;50.346;3.526;2023-10-31T04:46:24;9.15;;;4.95;;
52368;SDS011;38298;50.346;3.526;2023-10-31T04:48:52;11.45;;;5.32;;
52368;SDS011;38298;50.346;3.526;2023-10-31T04:51:18;11.60;;;5.18;;
52368;SDS011;38298;50.346;3.526;2023-10-31T04:53:44;16.50;;;8.00;;
52368;SDS011;38298;50.346;3.526;2023-10-31T04:56:14;7.53;;;4.93;;
52368;SDS011;38298;50.346;3.526;2023-10-31T04:58:41;7.53;;;5.50;;
52368;SDS011;38298;50.346;3.526;2023-10-31T05:01:08;6.45;;;4.55;;
52368;SDS011;38298;50.346;3.526;2023-10-31T05:03:34;6.85;;;5.03;;
52368;SDS011;38298;50.346;3.526;2023-10-31T05:06:00;5.80;;;3.97;;
52368;SDS011;38298;50.346;3.526;2023-10-31T05:08:26;5.45;;;3.97;;
52368;SDS011;38298;50.346;3.526;2023-10-31T05:10:52;3.97;;;3.63;;
52368;SDS011;38298;50.346;3.526;2023-10-31T05:13:18;7.75;;;3.47;;
52368;SDS011;38298;50.346;3.526;2023-10-31T05:15:44;7.72;;;5.10;;
52368;SDS011;38298;50.346;3.526;2023-10-31T05:18:10;8.77;;;3.78;;
52368;SDS011;38298;50.346;3.526;2023-10-31T05:20:36;6.25;;;3.75;;
52368;SDS011;38298;50.346;3.526;2023-10-31T05:23:02;7.75;;;3.30;;
52368;SDS011;38298;50.346;3.526;2023-10-31T05:25:28;5.95;;;4.43;;
52368;SDS011;38298;50.346;3.526;2023-10-31T05:27:54;7.28;;;3.85;;
52368;SDS011;38298;50.346;3.526;2023-10-31T05:30:20;8.00;;;4.20;;
52368;SDS011;38298;50.346;3.526;2023-10-31T05:32:46;4.15;;;3.30;;
52368;SDS011;38298;50.346;3.526;2023-10-31T05:35:12;6.78;;;3.78;;
52368;SDS011;38298;50.346;3.526;2023-10-31T05:37:38;5.50;;;3.47;;
52368;SDS011;38298;50.346;3.526;2023-10-31T05:40:04;4.38;;;3.35;;
52368;SDS011;38298;50.346;3.526;2023-10-31T05:42:31;9.45;;;3.35;;
52368;SDS011;38298;50.346;3.526;2023-10-31T05:44:57;5.13;;;3.55;;
52368;SDS011;38298;50.346;3.526;2023-10-31T05:47:23;5.75;;;2.90;;
52368;SDS011;38298;50.346;3.526;2023-10-31T05:49:49;3.55;;;3.22;;
52368;SDS011;38298;50.346;3.526;2023-10-31T05:52:15;7.90;;;3.50;;
52368;SDS011;38298;50.346;3.526;2023-10-31T05:54:41;7.30;;;3.38;;
52368;SDS011;38298;50.346;3.526;2023-10-31T05:57:07;4.72;;;3.10;;
52368;SDS011;38298;50.346;3.526;2023-10-31T05:59:32;9.90;;;3.40;;
52368;SDS011;38298;50.346;3.526;2023-10-31T06:01:58;7.47;;;3.20;;
52368;SDS011;38298;50.346;3.526;2023-10-31T06:04:24;6.70;;;2.78;;
52368;SDS011;38298;50.346;3.526;2023-10-31T06:06:51;3.78;;;2.55;;
52368;SDS011;38298;50.346;3.526;2023-10-31T06:09:17;8.35;;;2.55;;
52368;SDS011;38298;50.346;3.526;2023-10-31T06:11:43;4.88;;;2.67;;
52368;SDS011;38298;50.346;3.526;2023-10-31T06:14:10;5.10;;;3.03;;
52368;SDS011;38298;50.346;3.526;2023-10-31T06:16:42;4.85;;;3.20;;
52368;SDS011;38298;50.346;3.526;2023-10-31T06:19:09;11.45;;;4.05;;
52368;SDS011;38298;50.346;3.526;2023-10-31T06:21:35;12.02;;;3.88;;
52368;SDS011;38298;50.346;3.526;2023-10-31T06:24:04;12.73;;;4.20;;
52368;SDS011;38298;50.346;3.526;2023-10-31T06:26:30;10.45;;;6.00;;
52368;SDS011;38298;50.346;3.526;2023-10-31T06:28:56;8.55;;;4.05;;
52368;SDS011;38298;50.346;3.526;2023-10-31T06:31:22;8.55;;;3.28;;
52368;SDS011;38298;50.346;3.526;2023-10-31T06:33:48;29.30;;;5.80;;
52368;SDS011;38298;50.346;3.526;2023-10-31T06:36:14;8.43;;;3.92;;
52368;SDS011;38298;50.346;3.526;2023-10-31T06:38:40;9.98;;;3.85;;
52368;SDS011;38298;50.346;3.526;2023-10-31T06:41:06;10.27;;;3.25;;
52368;SDS011;38298;50.346;3.526;2023-10-31T06:43:34;11.63;;;3.60;;
52368;SDS011;38298;50.346;3.526;2023-10-31T06:46:00;5.65;;;3.28;;
52368;SDS011;38298;50.346;3.526;2023-10-31T06:48:28;11.90;;;3.78;;
52368;SDS011;38298;50.346;3.526;2023-10-31T06:50:54;9.50;;;4.60;;
52368;SDS011;38298;50.346;3.526;2023-10-31T06:53:20;9.77;;;3.90;;
52368;SDS011;38298;50.346;3.526;2023-10-31T06:55:46;10.80;;;4.43;;
52368;SDS011;38298;50.346;3.526;2023-10-31T06:58:12;8.43;;;4.40;;
52368;SDS011;38298;50.346;3.526;2023-10-31T07:00:50;9.07;;;4.50;;
52368;SDS011;38298;50.346;3.526;2023-10-31T07:03:16;12.65;;;4.38;;
52368;SDS011;38298;50.346;3.526;2023-10-31T07:05:42;11.63;;;4.70;;
52368;SDS011;38298;50.346;3.526;2023-10-31T07:08:08;9.77;;;4.65;;
52368;SDS011;38298;50.346;3.526;2023-10-31T07:10:35;10.93;;;4.63;;
52368;SDS011;38298;50.346;3.526;2023-10-31T07:13:01;11.05;;;5.28;;
52368;SDS011;38298;50.346;3.526;2023-10-31T07:15:27;9.73;;;4.63;;
52368;SDS011;38298;50.346;3.526;2023-10-31T07:17:53;14.85;;;4.05;;
52368;SDS011;38298;50.346;3.526;2023-10-31T07:20:19;12.75;;;4.60;;
52368;SDS011;38298;50.346;3.526;2023-10-31T07:22:45;17.33;;;5.63;;
52368;SDS011;38298;50.346;3.526;2023-10-31T07:25:11;11.98;;;4.60;;
52368;SDS011;38298;50.346;3.526;2023-10-31T07:27:37;13.02;;;4.75;;
52368;SDS011;38298;50.346;3.526;2023-10-31T07:30:03;13.13;;;5.35;;
52368;SDS011;38298;50.346;3.526;2023-10-31T07:32:30;11.55;;;5.00;;
52368;SDS011;38298;50.346;3.526;2023-10-31T07:34:56;16.95;;;6.43;;
52368;SDS011;38298;50.346;3.526;2023-10-31T07:37:22;8.25;;;5.15;;
52368;SDS011;38298;50.346;3.526;2023-10-31T07:39:48;16.77;;;5.72;;
52368;SDS011;38298;50.346;3.526;2023-10-31T07:42:16;16.85;;;5.45;;
52368;SDS011;38298;50.346;3.526;2023-10-31T07:44:42;9.63;;;5.43;;
52368;SDS011;38298;50.346;3.526;2023-10-31T07:47:08;13.10;;;5.38;;
52368;SDS011;38298;50.346;3.526;2023-10-31T07:49:34;13.52;;;5.68;;
52368;SDS011;38298;50.346;3.526;2023-10-31T07:52:00;9.77;;;4.90;;
52368;SDS011;38298;50.346;3.526;2023-10-31T07:54:26;9.60;;;5.07;;
52368;SDS011;38298;50.346;3.526;2023-10-31T07:56:52;13.88;;;5.90;;
52368;SDS011;38298;50.346;3.526;2023-10-31T07:59:18;11.70;;;5.82;;
52368;SDS011;38298;50.346;3.526;2023-10-31T08:01:44;13.18;;;5.53;;
52368;SDS011;38298;50.346;3.526;2023-10-31T08:04:10;20.05;;;6.40;;
52368;SDS011;38298;50.346;3.526;2023-10-31T08:06:36;14.80;;;6.00;;
52368;SDS011;38298;50.346;3.526;2023-10-31T08:09:02;13.85;;;6.22;;
52368;SDS011;38298;50.346;3.526;2023-10-31T08:11:28;14.07;;;5.65;;
52368;SDS011;38298;50.346;3.526;2023-10-31T08:13:54;14.15;;;6.53;;
52368;SDS011;38298;50.346;3.526;2023-10-31T08:16:20;16.15;;;7.07;;
52368;SDS011;38298;50.346;3.526;2023-10-31T08:18:46;17.05;;;5.90;;
52368;SDS011;38298;50.346;3.526;2023-10-31T08:21:12;17.52;;;7.78;;
52368;SDS011;38298;50.346;3.526;2023-10-31T08:23:39;19.95;;;8.60;;
52368;SDS011;38298;50.346;3.526;2023-10-31T08:26:05;17.23;;;7.05;;
52368;SDS011;38298;50.346;3.526;2023-10-31T08:28:31;21.90;;;9.25;;
52368;SDS011;38298;50.346;3.526;2023-10-31T08:30:57;14.10;;;6.60;;
52368;SDS011;38298;50.346;3.526;2023-10-31T08:33:23;13.10;;;6.72;;
52368;SDS011;38298;50.346;3.526;2023-10-31T08:35:49;13.25;;;6.32;;
52368;SDS011;38298;50.346;3.526;2023-10-31T08:38:16;11.48;;;6.05;;
52368;SDS011;38298;50.346;3.526;2023-10-31T08:40:42;18.63;;;7.47;;
52368;SDS011;38298;50.346;3.526;2023-10-31T08:43:08;14.68;;;7.45;;
52368;SDS011;38298;50.346;3.526;2023-10-31T08:45:34;14.70;;;7.60;;
52368;SDS011;38298;50.346;3.526;2023-10-31T08:48:00;16.23;;;6.38;;
52368;SDS011;38298;50.346;3.526;2023-10-31T08:50:26;10.63;;;6.22;;
52368;SDS011;38298;50.346;3.526;2023-10-31T08:52:53;12.43;;;6.68;;
52368;SDS011;38298;50.346;3.526;2023-10-31T08:55:19;13.85;;;6.50;;
52368;SDS011;38298;50.346;3.526;2023-10-31T08:57:45;21.73;;;9.45;;
52368;SDS011;38298;50.346;3.526;2023-10-31T09:00:12;12.27;;;6.55;;
52368;SDS011;38298;50.346;3.526;2023-10-31T09:02:39;13.63;;;6.78;;
52368;SDS011;38298;50.346;3.526;2023-10-31T09:05:05;13.95;;;7.15;;
52368;SDS011;38298;50.346;3.526;2023-10-31T09:07:31;14.65;;;7.15;;
52368;SDS011;38298;50.346;3.526;2023-10-31T09:09:57;17.60;;;7.32;;
52368;SDS011;38298;50.346;3.526;2023-10-31T09:12:23;15.10;;;7.53;;
52368;SDS011;38298;50.346;3.526;2023-10-31T09:14:49;15.48;;;7.30;;
52368;SDS011;38298;50.346;3.526;2023-10-31T09:17:15;19.67;;;7.88;;
52368;SDS011;38298;50.346;3.526;2023-10-31T09:19:41;13.90;;;7.50;;
52368;SDS011;38298;50.346;3.526;2023-10-31T09:22:07;12.13;;;7.65;;
52368;SDS011;38298;50.346;3.526;2023-10-31T09:24:33;18.38;;;8.02;;
52368;SDS011;38298;50.346;3.526;2023-10-31T09:26:59;15.02;;;6.95;;
52368;SDS011;38298;50.346;3.526;2023-10-31T09:29:25;16.02;;;7.65;;
52368;SDS011;38298;50.346;3.526;2023-10-31T09:31:51;15.38;;;7.43;;
52368;SDS011;38298;50.346;3.526;2023-10-31T09:34:17;14.13;;;7.40;;
52368;SDS011;38298;50.346;3.526;2023-10-31T09:36:43;18.90;;;7.65;;
52368;SDS011;38298;50.346;3.526;2023-10-31T09:39:09;17.23;;;6.88;;
52368;SDS011;38298;50.346;3.526;2023-10-31T09:41:35;17.25;;;7.40;;
52368;SDS011;38298;50.346;3.526;2023-10-31T09:44:02;16.63;;;7.85;;
52368;SDS011;38298;50.346;3.526;2023-10-31T09:46:28;19.73;;;7.47;;
52368;SDS011;38298;50.346;3.526;2023-10-31T09:48:55;17.98;;;6.35;;
52368;SDS011;38298;50.346;3.526;2023-10-31T09:51:21;14.57;;;7.00;;
52368;SDS011;38298;50.346;3.526;2023-10-31T09:53:47;16.58;;;6.75;;
52368;SDS011;38298;50.346;3.526;2023-10-31T09:56:14;14.35;;;6.57;;
52368;SDS011;38298;50.346;3.526;2023-10-31T09:58:42;12.02;;;6.70;;
52368;SDS011;38298;50.346;3.526;2023-10-31T10:01:08;15.40;;;6.28;;
52368;SDS011;38298;50.346;3.526;2023-10-31T10:03:36;19.77;;;6.82;;
52368;SDS011;38298;50.346;3.526;2023-10-31T10:06:02;22.92;;;7.03;;
52368;SDS011;38298;50.346;3.526;2023-10-31T10:08:28;11.80;;;5.95;;
52368;SDS011;38298;50.346;3.526;2023-10-31T10:10:54;18.23;;;7.55;;
52368;SDS011;38298;50.346;3.526;2023-10-31T10:13:20;10.90;;;5.85;;
52368;SDS011;38298;50.346;3.526;2023-10-31T10:15:47;12.45;;;5.35;;
52368;SDS011;38298;50.346;3.526;2023-10-31T10:18:33;11.52;;;4.45;;
52368;SDS011;38298;50.346;3.526;2023-10-31T10:21:00;11.02;;;4.50;;
52368;SDS011;38298;50.346;3.526;2023-10-31T10:23:27;9.40;;;4.30;;
52368;SDS011;38298;50.346;3.526;2023-10-31T10:25:53;9.88;;;4.55;;
52368;SDS011;38298;50.346;3.526;2023-10-31T10:28:20;10.82;;;3.80;;
52368;SDS011;38298;50.346;3.526;2023-10-31T10:30:46;5.72;;;3.63;;
52368;SDS011;38298;50.346;3.526;2023-10-31T10:33:13;7.47;;;3.45;;
52368;SDS011;38298;50.346;3.526;2023-10-31T10:35:39;7.18;;;3.13;;
52368;SDS011;38298;50.346;3.526;2023-10-31T10:38:10;9.32;;;4.35;;
52368;SDS011;38298;50.346;3.526;2023-10-31T10:40:38;6.50;;;3.88;;
52368;SDS011;38298;50.346;3.526;2023-10-31T10:43:05;6.25;;;3.13;;
52368;SDS011;38298;50.346;3.526;2023-10-31T10:45:34;7.95;;;3.92;;
52368;SDS011;38298;50.346;3.526;2023-10-31T10:48:00;10.98;;;4.03;;
52368;SDS011;38298;50.346;3.526;2023-10-31T10:50:31;6.85;;;3.80;;
52368;SDS011;38298;50.346;3.526;2023-10-31T10:53:05;9.00;;;3.60;;
52368;SDS011;38298;50.346;3.526;2023-10-31T10:55:35;6.57;;;3.20;;
52368;SDS011;38298;50.346;3.526;2023-10-31T10:58:04;16.83;;;3.90;;
52368;SDS011;38298;50.346;3.526;2023-10-31T11:00:31;9.32;;;3.63;;
52368;SDS011;38298;50.346;3.526;2023-10-31T11:02:57;11.98;;;4.10;;
52368;SDS011;38298;50.346;3.526;2023-10-31T11:05:23;7.47;;;3.20;;
52368;SDS011;38298;50.346;3.526;2023-10-31T11:07:49;8.52;;;3.20;;
52368;SDS011;38298;50.346;3.526;2023-10-31T11:10:17;8.80;;;3.58;;
52368;SDS011;38298;50.346;3.526;2023-10-31T11:12:43;5.22;;;2.78;;
52368;SDS011;38298;50.346;3.526;2023-10-31T11:15:09;7.00;;;3.05;;
52368;SDS011;38298;50.346;3.526;2023-10-31T11:17:37;8.52;;;2.95;;
52368;SDS011;38298;50.346;3.526;2023-10-31T11:20:04;11.52;;;3.05;;
52368;SDS011;38298;50.346;3.526;2023-10-31T11:23:04;4.90;;;2.90;;
52368;SDS011;38298;50.346;3.526;2023-10-31T11:25:23;11.45;;;2.97;;
52368;SDS011;38298;50.346;3.526;2023-10-31T11:27:52;9.00;;;2.85;;
52368;SDS011;38298;50.346;3.526;2023-10-31T11:30:20;15.02;;;3.05;;
52368;SDS011;38298;50.346;3.526;2023-10-31T11:32:47;6.03;;;2.88;;
52368;SDS011;38298;50.346;3.526;2023-10-31T11:35:14;10.30;;;3.22;;
52368;SDS011;38298;50.346;3.526;2023-10-31T11:37:41;10.82;;;3.22;;
52368;SDS011;38298;50.346;3.526;2023-10-31T11:42:42;8.73;;;3.33;;
52368;SDS011;38298;50.346;3.526;2023-10-31T11:45:11;8.57;;;3.20;;
52368;SDS011;38298;50.346;3.526;2023-10-31T11:47:47;7.07;;;2.30;;
52368;SDS011;38298;50.346;3.526;2023-10-31T11:50:13;5.72;;;2.80;;
52368;SDS011;38298;50.346;3.526;2023-10-31T11:52:39;8.10;;;2.70;;
52368;SDS011;38298;50.346;3.526;2023-10-31T11:55:14;10.38;;;2.92;;
52368;SDS011;38298;50.346;3.526;2023-10-31T11:57:40;4.15;;;2.78;;
52368;SDS011;38298;50.346;3.526;2023-10-31T12:00:07;6.03;;;2.95;;
52368;SDS011;38298;50.346;3.526;2023-10-31T12:02:56;10.40;;;2.72;;
52368;SDS011;38298;50.346;3.526;2023-10-31T12:05:22;7.03;;;2.90;;
52368;SDS011;38298;50.346;3.526;2023-10-31T12:07:48;7.53;;;2.60;;
52368;SDS011;38298;50.346;3.526;2023-10-31T12:10:16;5.15;;;2.65;;
52368;SDS011;38298;50.346;3.526;2023-10-31T12:12:48;8.82;;;2.60;;
52368;SDS011;38298;50.346;3.526;2023-10-31T12:15:14;8.55;;;2.70;;
52368;SDS011;38298;50.346;3.526;2023-10-31T12:17:40;6.03;;;2.70;;
52368;SDS011;38298;50.346;3.526;2023-10-31T12:20:06;6.60;;;2.28;;
52368;SDS011;38298;50.346;3.526;2023-10-31T12:22:33;6.95;;;2.67;;
52368;SDS011;38298;50.346;3.526;2023-10-31T12:25:02;12.35;;;2.65;;
52368;SDS011;38298;50.346;3.526;2023-10-31T12:27:48;6.60;;;2.60;;
52368;SDS011;38298;50.346;3.526;2023-10-31T12:30:15;6.18;;;2.40;;
52368;SDS011;38298;50.346;3.526;2023-10-31T12:32:41;5.57;;;2.20;;
52368;SDS011;38298;50.346;3.526;2023-10-31T12:35:08;15.20;;;4.78;;
52368;SDS011;38298;50.346;3.526;2023-10-31T12:37:41;6.13;;;1.90;;
52368;SDS011;38298;50.346;3.526;2023-10-31T12:40:07;8.98;;;2.78;;
52368;SDS011;38298;50.346;3.526;2023-10-31T12:42:34;6.53;;;2.20;;
52368;SDS011;38298;50.346;3.526;2023-10-31T12:45:00;20.25;;;3.85;;
52368;SDS011;38298;50.346;3.526;2023-10-31T12:47:26;5.95;;;1.60;;
52368;SDS011;38298;50.346;3.526;2023-10-31T12:52:49;5.20;;;1.30;;
52368;SDS011;38298;50.346;3.526;2023-10-31T12:55:22;6.32;;;2.00;;
52368;SDS011;38298;50.346;3.526;2023-10-31T12:57:49;4.45;;;1.77;;
52368;SDS011;38298;50.346;3.526;2023-10-31T13:00:17;7.95;;;2.13;;
52368;SDS011;38298;50.346;3.526;2023-10-31T13:02:58;4.35;;;1.55;;
52368;SDS011;38298;50.346;3.526;2023-10-31T13:05:25;5.25;;;1.65;;
52368;SDS011;38298;50.346;3.526;2023-10-31T13:07:52;3.50;;;1.23;;
52368;SDS011;38298;50.346;3.526;2023-10-31T13:10:24;6.38;;;1.92;;
52368;SDS011;38298;50.346;3.526;2023-10-31T13:12:51;6.15;;;1.45;;
52368;SDS011;38298;50.346;3.526;2023-10-31T13:15:17;6.75;;;1.80;;
52368;SDS011;38298;50.346;3.526;2023-10-31T13:17:44;5.70;;;1.52;;
52368;SDS011;38298;50.346;3.526;2023-10-31T13:20:14;6.10;;;1.27;;
52368;SDS011;38298;50.346;3.526;2023-10-31T13:22:40;5.43;;;1.38;;
52368;SDS011;38298;50.346;3.526;2023-10-31T13:25:07;6.05;;;1.48;;
52368;SDS011;38298;50.346;3.526;2023-10-31T13:27:35;7.35;;;1.10;;
52368;SDS011;38298;50.346;3.526;2023-10-31T13:30:02;6.30;;;1.30;;
52368;SDS011;38298;50.346;3.526;2023-10-31T13:32:28;6.75;;;1.42;;
52368;SDS011;38298;50.346;3.526;2023-10-31T13:34:54;5.45;;;1.70;;
52368;SDS011;38298;50.346;3.526;2023-10-31T13:37:20;9.63;;;1.58;;
52368;SDS011;38298;50.346;3.526;2023-10-31T13:39:46;4.80;;;1.20;;
52368;SDS011;38298;50.346;3.526;2023-10-31T13:42:12;6.53;;;1.00;;
52368;SDS011;38298;50.346;3.526;2023-10-31T13:44:39;10.07;;;1.20;;
52368;SDS011;38298;50.346;3.526;2023-10-31T13:47:05;6.28;;;1.63;;
52368;SDS011;38298;50.346;3.526;2023-10-31T13:49:31;6.68;;;1.40;;
52368;SDS011;38298;50.346;3.526;2023-10-31T13:51:57;5.43;;;1.70;;
52368;SDS011;38298;50.346;3.526;2023-10-31T13:54:24;9.25;;;2.72;;
52368;SDS011;38298;50.346;3.526;2023-10-31T13:56:50;7.15;;;1.15;;
52368;SDS011;38298;50.346;3.526;2023-10-31T13:59:16;7.20;;;1.80;;
52368;SDS011;38298;50.346;3.526;2023-10-31T14:01:43;6.93;;;1.40;;
52368;SDS011;38298;50.346;3.526;2023-10-31T14:04:12;3.73;;;1.43;;
52368;SDS011;38298;50.346;3.526;2023-10-31T14:06:39;5.57;;;1.10;;
52368;SDS011;38298;50.346;3.526;2023-10-31T14:09:08;7.18;;;1.30;;
52368;SDS011;38298;50.346;3.526;2023-10-31T14:11:34;5.03;;;1.38;;
52368;SDS011;38298;50.346;3.526;2023-10-31T14:14:01;5.03;;;1.20;;
52368;SDS011;38298;50.346;3.526;2023-10-31T14:16:38;10.98;;;1.00;;
52368;SDS011;38298;50.346;3.526;2023-10-31T14:19:05;9.80;;;1.40;;
52368;SDS011;38298;50.346;3.526;2023-10-31T14:21:32;4.47;;;1.10;;
52368;SDS011;38298;50.346;3.526;2023-10-31T14:23:58;7.15;;;1.10;;
52368;SDS011;38298;50.346;3.526;2023-10-31T14:26:24;4.05;;;1.00;;
52368;SDS011;38298;50.346;3.526;2023-10-31T14:28:50;5.00;;;1.15;;
52368;SDS011;38298;50.346;3.526;2023-10-31T14:31:16;3.38;;;1.08;;
52368;SDS011;38298;50.346;3.526;2023-10-31T14:33:43;6.75;;;1.48;;
52368;SDS011;38298;50.346;3.526;2023-10-31T14:36:10;7.15;;;1.48;;
52368;SDS011;38298;50.346;3.526;2023-10-31T14:38:37;7.85;;;1.42;;
52368;SDS011;38298;50.346;3.526;2023-10-31T14:41:03;9.95;;;1.63;;
52368;SDS011;38298;50.346;3.526;2023-10-31T14:43:30;5.53;;;1.27;;
52368;SDS011;38298;50.346;3.526;2023-10-31T14:45:56;3.35;;;1.00;;